sensor_id;sensor_type;location;lat;lon;timestamp;P1;durP1;ratioP1;P2;durP2;ratioP2
40116;SDS011;25829;50.228;18.936;2024-03-08T00:02:43;37.50;;;21.50;;
40116;SDS011;25829;50.228;18.936;2024-03-08T00:05:45;34.40;;;21.03;;
40116;SDS011;25829;50.228;18.936;2024-03-08T00:08:45;34.20;;;21.67;;
40116;SDS011;25829;50.228;18.936;2024-03-08T00:11:46;37.23;;;19.97;;
40116;SDS011;25829;50.228;18.936;2024-03-08T00:14:47;33.57;;;20.23;;
40116;SDS011;25829;50.228;18.936;2024-03-08T00:17:48;37.20;;;20.70;;
40116;SDS011;25829;50.228;18.936;2024-03-08T00:20:49;33.20;;;20.83;;
40116;SDS011;25829;50.228;18.936;2024-03-08T00:23:51;33.07;;;20.27;;
40116;SDS011;25829;50.228;18.936;2024-03-08T00:26:55;38.47;;;20.67;;
40116;SDS011;25829;50.228;18.936;2024-03-08T00:29:55;33.77;;;19.43;;
40116;SDS011;25829;50.228;18.936;2024-03-08T00:32:57;34.77;;;19.93;;
40116;SDS011;25829;50.228;18.936;2024-03-08T00:35:58;35.73;;;20.27;;
40116;SDS011;25829;50.228;18.936;2024-03-08T00:38:59;42.67;;;22.00;;
40116;SDS011;25829;50.228;18.936;2024-03-08T00:42:01;44.70;;;22.53;;
40116;SDS011;25829;50.228;18.936;2024-03-08T00:45:01;42.63;;;22.83;;
40116;SDS011;25829;50.228;18.936;2024-03-08T00:48:03;47.60;;;23.93;;
40116;SDS011;25829;50.228;18.936;2024-03-08T00:51:05;37.07;;;21.53;;
40116;SDS011;25829;50.228;18.936;2024-03-08T00:54:06;33.37;;;20.57;;
40116;SDS011;25829;50.228;18.936;2024-03-08T00:57:07;35.43;;;20.47;;
40116;SDS011;25829;50.228;18.936;2024-03-08T01:00:08;32.03;;;20.33;;
40116;SDS011;25829;50.228;18.936;2024-03-08T01:03:10;36.67;;;21.87;;
40116;SDS011;25829;50.228;18.936;2024-03-08T01:06:11;37.23;;;21.33;;
40116;SDS011;25829;50.228;18.936;2024-03-08T01:09:12;34.93;;;22.60;;
40116;SDS011;25829;50.228;18.936;2024-03-08T01:12:12;30.70;;;20.40;;
40116;SDS011;25829;50.228;18.936;2024-03-08T01:15:13;35.50;;;20.60;;
40116;SDS011;25829;50.228;18.936;2024-03-08T01:18:14;31.77;;;20.70;;
40116;SDS011;25829;50.228;18.936;2024-03-08T01:21:15;32.87;;;20.40;;
40116;SDS011;25829;50.228;18.936;2024-03-08T01:24:16;37.97;;;20.20;;
40116;SDS011;25829;50.228;18.936;2024-03-08T01:27:17;30.20;;;20.63;;
40116;SDS011;25829;50.228;18.936;2024-03-08T01:30:17;33.57;;;19.90;;
40116;SDS011;25829;50.228;18.936;2024-03-08T01:33:18;35.13;;;21.57;;
40116;SDS011;25829;50.228;18.936;2024-03-08T01:36:22;32.33;;;20.50;;
40116;SDS011;25829;50.228;18.936;2024-03-08T01:39:23;34.17;;;20.57;;
40116;SDS011;25829;50.228;18.936;2024-03-08T01:42:24;30.67;;;19.40;;
40116;SDS011;25829;50.228;18.936;2024-03-08T01:45:25;32.63;;;19.93;;
40116;SDS011;25829;50.228;18.936;2024-03-08T01:48:26;34.00;;;19.47;;
40116;SDS011;25829;50.228;18.936;2024-03-08T01:51:29;33.00;;;18.73;;
40116;SDS011;25829;50.228;18.936;2024-03-08T01:54:31;29.93;;;18.73;;
40116;SDS011;25829;50.228;18.936;2024-03-08T01:57:32;27.73;;;17.93;;
40116;SDS011;25829;50.228;18.936;2024-03-08T02:00:34;27.40;;;17.20;;
40116;SDS011;25829;50.228;18.936;2024-03-08T02:03:36;29.07;;;17.70;;
40116;SDS011;25829;50.228;18.936;2024-03-08T02:06:37;26.13;;;16.83;;
40116;SDS011;25829;50.228;18.936;2024-03-08T02:09:39;26.00;;;17.27;;
40116;SDS011;25829;50.228;18.936;2024-03-08T02:12:39;28.23;;;17.97;;
40116;SDS011;25829;50.228;18.936;2024-03-08T02:15:53;27.00;;;17.33;;
40116;SDS011;25829;50.228;18.936;2024-03-08T02:18:59;34.37;;;20.27;;
40116;SDS011;25829;50.228;18.936;2024-03-08T02:22:00;29.07;;;17.93;;
40116;SDS011;25829;50.228;18.936;2024-03-08T02:25:04;30.63;;;19.37;;
40116;SDS011;25829;50.228;18.936;2024-03-08T02:28:06;27.33;;;18.90;;
40116;SDS011;25829;50.228;18.936;2024-03-08T02:31:08;32.77;;;17.97;;
40116;SDS011;25829;50.228;18.936;2024-03-08T02:34:09;29.50;;;19.57;;
40116;SDS011;25829;50.228;18.936;2024-03-08T02:37:09;29.60;;;18.20;;
40116;SDS011;25829;50.228;18.936;2024-03-08T02:40:10;28.30;;;18.27;;
40116;SDS011;25829;50.228;18.936;2024-03-08T02:43:13;29.73;;;17.40;;
40116;SDS011;25829;50.228;18.936;2024-03-08T02:46:15;26.80;;;16.50;;
40116;SDS011;25829;50.228;18.936;2024-03-08T02:49:15;28.40;;;17.17;;
40116;SDS011;25829;50.228;18.936;2024-03-08T02:52:16;26.87;;;16.77;;
40116;SDS011;25829;50.228;18.936;2024-03-08T02:55:17;27.00;;;16.30;;
40116;SDS011;25829;50.228;18.936;2024-03-08T02:58:18;31.23;;;17.73;;
40116;SDS011;25829;50.228;18.936;2024-03-08T03:01:18;29.27;;;17.13;;
40116;SDS011;25829;50.228;18.936;2024-03-08T03:04:20;28.00;;;17.13;;
40116;SDS011;25829;50.228;18.936;2024-03-08T03:07:21;29.83;;;18.17;;
40116;SDS011;25829;50.228;18.936;2024-03-08T03:10:22;26.77;;;17.47;;
40116;SDS011;25829;50.228;18.936;2024-03-08T03:13:22;34.60;;;18.00;;
40116;SDS011;25829;50.228;18.936;2024-03-08T03:16:23;30.13;;;18.07;;
40116;SDS011;25829;50.228;18.936;2024-03-08T03:19:24;28.00;;;16.77;;
40116;SDS011;25829;50.228;18.936;2024-03-08T03:22:25;29.23;;;17.40;;
40116;SDS011;25829;50.228;18.936;2024-03-08T03:25:26;31.07;;;18.03;;
40116;SDS011;25829;50.228;18.936;2024-03-08T03:28:29;27.67;;;17.13;;
40116;SDS011;25829;50.228;18.936;2024-03-08T03:31:30;28.33;;;17.90;;
40116;SDS011;25829;50.228;18.936;2024-03-08T03:34:31;33.17;;;18.23;;
40116;SDS011;25829;50.228;18.936;2024-03-08T03:37:32;29.33;;;17.97;;
40116;SDS011;25829;50.228;18.936;2024-03-08T03:40:34;27.20;;;17.93;;
40116;SDS011;25829;50.228;18.936;2024-03-08T03:43:36;27.47;;;17.07;;
40116;SDS011;25829;50.228;18.936;2024-03-08T03:46:43;28.63;;;16.80;;
40116;SDS011;25829;50.228;18.936;2024-03-08T03:49:44;26.83;;;16.90;;
40116;SDS011;25829;50.228;18.936;2024-03-08T03:52:48;23.90;;;16.93;;
40116;SDS011;25829;50.228;18.936;2024-03-08T03:55:49;25.40;;;16.07;;
40116;SDS011;25829;50.228;18.936;2024-03-08T03:58:49;25.93;;;16.33;;
40116;SDS011;25829;50.228;18.936;2024-03-08T04:01:51;27.23;;;17.27;;
40116;SDS011;25829;50.228;18.936;2024-03-08T04:04:52;26.33;;;16.43;;
40116;SDS011;25829;50.228;18.936;2024-03-08T04:07:54;26.40;;;16.43;;
40116;SDS011;25829;50.228;18.936;2024-03-08T04:10:55;24.20;;;16.07;;
40116;SDS011;25829;50.228;18.936;2024-03-08T04:13:56;26.03;;;16.23;;
40116;SDS011;25829;50.228;18.936;2024-03-08T04:16:56;25.57;;;16.67;;
40116;SDS011;25829;50.228;18.936;2024-03-08T04:19:57;25.80;;;17.13;;
40116;SDS011;25829;50.228;18.936;2024-03-08T04:22:58;26.57;;;16.30;;
40116;SDS011;25829;50.228;18.936;2024-03-08T04:25:59;27.17;;;16.73;;
40116;SDS011;25829;50.228;18.936;2024-03-08T04:29:00;26.30;;;15.87;;
40116;SDS011;25829;50.228;18.936;2024-03-08T04:32:04;23.93;;;16.67;;
40116;SDS011;25829;50.228;18.936;2024-03-08T04:35:07;26.47;;;16.53;;
40116;SDS011;25829;50.228;18.936;2024-03-08T04:38:08;22.27;;;14.87;;
40116;SDS011;25829;50.228;18.936;2024-03-08T04:41:09;27.77;;;17.17;;
40116;SDS011;25829;50.228;18.936;2024-03-08T04:44:10;24.13;;;16.20;;
40116;SDS011;25829;50.228;18.936;2024-03-08T04:47:13;25.40;;;15.03;;
40116;SDS011;25829;50.228;18.936;2024-03-08T04:50:14;23.73;;;15.47;;
40116;SDS011;25829;50.228;18.936;2024-03-08T04:53:14;27.90;;;16.23;;
40116;SDS011;25829;50.228;18.936;2024-03-08T04:56:15;24.17;;;15.87;;
40116;SDS011;25829;50.228;18.936;2024-03-08T04:59:16;25.57;;;16.83;;
40116;SDS011;25829;50.228;18.936;2024-03-08T05:02:17;24.17;;;16.40;;
40116;SDS011;25829;50.228;18.936;2024-03-08T05:05:18;26.33;;;16.87;;
40116;SDS011;25829;50.228;18.936;2024-03-08T05:08:19;25.97;;;16.10;;
40116;SDS011;25829;50.228;18.936;2024-03-08T05:11:20;25.50;;;16.27;;
40116;SDS011;25829;50.228;18.936;2024-03-08T05:14:20;24.93;;;16.27;;
40116;SDS011;25829;50.228;18.936;2024-03-08T05:17:21;24.07;;;16.83;;
40116;SDS011;25829;50.228;18.936;2024-03-08T05:20:24;21.57;;;15.77;;
40116;SDS011;25829;50.228;18.936;2024-03-08T05:23:26;26.30;;;17.87;;
40116;SDS011;25829;50.228;18.936;2024-03-08T05:26:26;29.43;;;16.37;;
40116;SDS011;25829;50.228;18.936;2024-03-08T05:29:27;27.93;;;17.60;;
40116;SDS011;25829;50.228;18.936;2024-03-08T05:32:29;28.33;;;17.33;;
40116;SDS011;25829;50.228;18.936;2024-03-08T05:35:30;26.77;;;17.33;;
40116;SDS011;25829;50.228;18.936;2024-03-08T05:38:30;24.43;;;16.67;;
40116;SDS011;25829;50.228;18.936;2024-03-08T05:41:31;24.70;;;15.57;;
40116;SDS011;25829;50.228;18.936;2024-03-08T05:44:32;23.07;;;15.87;;
40116;SDS011;25829;50.228;18.936;2024-03-08T05:47:34;23.10;;;15.43;;
40116;SDS011;25829;50.228;18.936;2024-03-08T05:50:35;22.53;;;14.90;;
40116;SDS011;25829;50.228;18.936;2024-03-08T05:53:36;21.57;;;15.17;;
40116;SDS011;25829;50.228;18.936;2024-03-08T05:56:37;21.67;;;15.00;;
40116;SDS011;25829;50.228;18.936;2024-03-08T05:59:38;21.57;;;14.40;;
40116;SDS011;25829;50.228;18.936;2024-03-08T06:02:39;18.90;;;13.63;;
40116;SDS011;25829;50.228;18.936;2024-03-08T06:05:41;19.10;;;14.40;;
40116;SDS011;25829;50.228;18.936;2024-03-08T06:08:42;20.27;;;13.67;;
40116;SDS011;25829;50.228;18.936;2024-03-08T06:11:43;23.77;;;15.33;;
40116;SDS011;25829;50.228;18.936;2024-03-08T06:14:44;22.23;;;14.33;;
40116;SDS011;25829;50.228;18.936;2024-03-08T06:17:46;19.87;;;13.60;;
40116;SDS011;25829;50.228;18.936;2024-03-08T06:20:46;20.57;;;13.60;;
40116;SDS011;25829;50.228;18.936;2024-03-08T06:23:47;20.33;;;12.90;;
40116;SDS011;25829;50.228;18.936;2024-03-08T06:26:49;19.03;;;13.33;;
40116;SDS011;25829;50.228;18.936;2024-03-08T06:29:50;21.03;;;13.73;;
40116;SDS011;25829;50.228;18.936;2024-03-08T06:32:50;22.13;;;14.00;;
40116;SDS011;25829;50.228;18.936;2024-03-08T06:35:52;18.37;;;13.30;;
40116;SDS011;25829;50.228;18.936;2024-03-08T06:38:54;19.27;;;12.17;;
40116;SDS011;25829;50.228;18.936;2024-03-08T06:41:56;16.53;;;11.93;;
40116;SDS011;25829;50.228;18.936;2024-03-08T06:44:57;20.77;;;11.53;;
40116;SDS011;25829;50.228;18.936;2024-03-08T06:48:04;16.37;;;11.43;;
40116;SDS011;25829;50.228;18.936;2024-03-08T06:51:09;18.17;;;12.17;;
40116;SDS011;25829;50.228;18.936;2024-03-08T06:54:11;18.20;;;12.07;;
40116;SDS011;25829;50.228;18.936;2024-03-08T06:57:12;15.87;;;11.53;;
40116;SDS011;25829;50.228;18.936;2024-03-08T07:00:14;16.87;;;11.83;;
40116;SDS011;25829;50.228;18.936;2024-03-08T07:03:18;17.20;;;12.00;;
40116;SDS011;25829;50.228;18.936;2024-03-08T07:06:21;14.87;;;10.50;;
40116;SDS011;25829;50.228;18.936;2024-03-08T07:09:21;17.60;;;11.50;;
40116;SDS011;25829;50.228;18.936;2024-03-08T07:12:22;23.60;;;13.67;;
40116;SDS011;25829;50.228;18.936;2024-03-08T07:15:23;15.70;;;12.10;;
40116;SDS011;25829;50.228;18.936;2024-03-08T07:18:24;16.60;;;12.07;;
40116;SDS011;25829;50.228;18.936;2024-03-08T07:21:26;17.90;;;12.03;;
40116;SDS011;25829;50.228;18.936;2024-03-08T07:24:27;20.50;;;12.83;;
40116;SDS011;25829;50.228;18.936;2024-03-08T07:27:42;18.10;;;12.63;;
40116;SDS011;25829;50.228;18.936;2024-03-08T07:30:43;18.67;;;12.83;;
40116;SDS011;25829;50.228;18.936;2024-03-08T07:34:17;18.40;;;12.53;;
40116;SDS011;25829;50.228;18.936;2024-03-08T07:37:38;17.87;;;12.20;;
40116;SDS011;25829;50.228;18.936;2024-03-08T07:40:40;22.20;;;12.83;;
40116;SDS011;25829;50.228;18.936;2024-03-08T07:43:44;19.43;;;13.17;;
40116;SDS011;25829;50.228;18.936;2024-03-08T07:46:45;19.50;;;14.97;;
40116;SDS011;25829;50.228;18.936;2024-03-08T07:49:46;19.37;;;13.57;;
40116;SDS011;25829;50.228;18.936;2024-03-08T07:52:49;24.43;;;13.53;;
40116;SDS011;25829;50.228;18.936;2024-03-08T07:55:50;19.77;;;13.60;;
40116;SDS011;25829;50.228;18.936;2024-03-08T07:58:50;19.03;;;13.03;;
40116;SDS011;25829;50.228;18.936;2024-03-08T08:01:51;22.20;;;13.83;;
40116;SDS011;25829;50.228;18.936;2024-03-08T08:04:52;18.57;;;12.53;;
40116;SDS011;25829;50.228;18.936;2024-03-08T08:07:53;24.73;;;13.77;;
40116;SDS011;25829;50.228;18.936;2024-03-08T08:10:53;19.80;;;13.90;;
40116;SDS011;25829;50.228;18.936;2024-03-08T08:13:54;18.93;;;12.57;;
40116;SDS011;25829;50.228;18.936;2024-03-08T08:16:55;19.63;;;14.43;;
40116;SDS011;25829;50.228;18.936;2024-03-08T08:19:57;16.27;;;13.03;;
40116;SDS011;25829;50.228;18.936;2024-03-08T08:22:58;18.07;;;13.50;;
40116;SDS011;25829;50.228;18.936;2024-03-08T08:29:01;16.80;;;14.03;;
40116;SDS011;25829;50.228;18.936;2024-03-08T08:32:02;17.97;;;12.53;;
40116;SDS011;25829;50.228;18.936;2024-03-08T08:35:04;17.43;;;13.63;;
40116;SDS011;25829;50.228;18.936;2024-03-08T08:38:06;17.83;;;13.37;;
40116;SDS011;25829;50.228;18.936;2024-03-08T08:41:07;15.10;;;11.67;;
40116;SDS011;25829;50.228;18.936;2024-03-08T08:44:09;20.50;;;12.70;;
40116;SDS011;25829;50.228;18.936;2024-03-08T08:47:12;18.67;;;12.53;;
40116;SDS011;25829;50.228;18.936;2024-03-08T08:50:13;17.67;;;12.73;;
40116;SDS011;25829;50.228;18.936;2024-03-08T08:53:14;17.53;;;13.13;;
40116;SDS011;25829;50.228;18.936;2024-03-08T08:56:14;18.60;;;12.10;;
40116;SDS011;25829;50.228;18.936;2024-03-08T08:59:16;16.10;;;12.73;;
40116;SDS011;25829;50.228;18.936;2024-03-08T09:02:19;17.87;;;13.33;;
40116;SDS011;25829;50.228;18.936;2024-03-08T09:05:21;18.93;;;12.33;;
40116;SDS011;25829;50.228;18.936;2024-03-08T09:08:24;18.13;;;12.23;;
40116;SDS011;25829;50.228;18.936;2024-03-08T09:11:25;17.30;;;11.47;;
40116;SDS011;25829;50.228;18.936;2024-03-08T09:14:25;18.43;;;12.67;;
40116;SDS011;25829;50.228;18.936;2024-03-08T09:17:26;15.77;;;11.83;;
40116;SDS011;25829;50.228;18.936;2024-03-08T09:20:27;17.30;;;12.60;;
40116;SDS011;25829;50.228;18.936;2024-03-08T09:23:28;18.43;;;12.87;;
40116;SDS011;25829;50.228;18.936;2024-03-08T09:26:32;18.30;;;12.77;;
40116;SDS011;25829;50.228;18.936;2024-03-08T09:29:33;21.17;;;13.73;;
40116;SDS011;25829;50.228;18.936;2024-03-08T09:32:34;20.37;;;13.33;;
40116;SDS011;25829;50.228;18.936;2024-03-08T09:35:35;20.17;;;14.27;;
40116;SDS011;25829;50.228;18.936;2024-03-08T09:38:36;20.87;;;12.57;;
40116;SDS011;25829;50.228;18.936;2024-03-08T09:41:36;18.97;;;13.23;;
40116;SDS011;25829;50.228;18.936;2024-03-08T09:44:39;18.73;;;12.90;;
40116;SDS011;25829;50.228;18.936;2024-03-08T09:47:44;20.17;;;13.27;;
40116;SDS011;25829;50.228;18.936;2024-03-08T09:50:45;20.43;;;13.67;;
40116;SDS011;25829;50.228;18.936;2024-03-08T09:53:46;17.33;;;13.03;;
40116;SDS011;25829;50.228;18.936;2024-03-08T09:56:48;20.50;;;13.83;;
40116;SDS011;25829;50.228;18.936;2024-03-08T09:59:51;21.03;;;14.17;;
40116;SDS011;25829;50.228;18.936;2024-03-08T10:02:52;17.43;;;12.13;;
40116;SDS011;25829;50.228;18.936;2024-03-08T10:05:54;18.03;;;12.83;;
40116;SDS011;25829;50.228;18.936;2024-03-08T10:08:56;20.63;;;13.87;;
40116;SDS011;25829;50.228;18.936;2024-03-08T10:11:57;18.33;;;13.57;;
40116;SDS011;25829;50.228;18.936;2024-03-08T10:14:59;19.67;;;13.70;;
40116;SDS011;25829;50.228;18.936;2024-03-08T10:18:00;22.17;;;14.23;;
40116;SDS011;25829;50.228;18.936;2024-03-08T10:21:03;20.07;;;14.37;;
40116;SDS011;25829;50.228;18.936;2024-03-08T10:24:05;20.93;;;13.30;;
40116;SDS011;25829;50.228;18.936;2024-03-08T10:27:06;19.07;;;13.87;;
40116;SDS011;25829;50.228;18.936;2024-03-08T10:30:10;19.90;;;13.87;;
40116;SDS011;25829;50.228;18.936;2024-03-08T10:33:13;21.83;;;13.97;;
40116;SDS011;25829;50.228;18.936;2024-03-08T10:36:14;17.63;;;12.00;;
40116;SDS011;25829;50.228;18.936;2024-03-08T10:39:22;19.40;;;12.00;;
40116;SDS011;25829;50.228;18.936;2024-03-08T10:42:25;17.27;;;12.77;;
40116;SDS011;25829;50.228;18.936;2024-03-08T10:45:36;19.30;;;12.77;;
40116;SDS011;25829;50.228;18.936;2024-03-08T10:48:42;18.80;;;12.73;;
40116;SDS011;25829;50.228;18.936;2024-03-08T10:51:45;18.73;;;13.13;;
40116;SDS011;25829;50.228;18.936;2024-03-08T10:54:49;20.83;;;13.00;;
40116;SDS011;25829;50.228;18.936;2024-03-08T10:57:55;18.53;;;12.90;;
40116;SDS011;25829;50.228;18.936;2024-03-08T11:00:56;17.17;;;12.07;;
40116;SDS011;25829;50.228;18.936;2024-03-08T11:04:25;18.93;;;11.93;;
40116;SDS011;25829;50.228;18.936;2024-03-08T11:07:35;19.23;;;13.57;;
40116;SDS011;25829;50.228;18.936;2024-03-08T11:10:45;17.97;;;12.47;;
40116;SDS011;25829;50.228;18.936;2024-03-08T11:13:56;17.93;;;13.10;;
40116;SDS011;25829;50.228;18.936;2024-03-08T11:17:01;20.60;;;12.93;;
40116;SDS011;25829;50.228;18.936;2024-03-08T11:20:11;19.37;;;13.37;;
40116;SDS011;25829;50.228;18.936;2024-03-08T11:23:16;17.37;;;12.73;;
40116;SDS011;25829;50.228;18.936;2024-03-08T11:26:24;18.10;;;12.50;;
40116;SDS011;25829;50.228;18.936;2024-03-08T11:32:29;19.73;;;13.50;;
40116;SDS011;25829;50.228;18.936;2024-03-08T11:35:30;25.27;;;13.77;;
40116;SDS011;25829;50.228;18.936;2024-03-08T11:38:32;18.40;;;12.70;;
40116;SDS011;25829;50.228;18.936;2024-03-08T11:41:33;20.90;;;13.50;;
40116;SDS011;25829;50.228;18.936;2024-03-08T11:44:34;21.83;;;14.27;;
40116;SDS011;25829;50.228;18.936;2024-03-08T11:47:36;20.90;;;12.97;;
40116;SDS011;25829;50.228;18.936;2024-03-08T11:50:40;18.83;;;13.37;;
40116;SDS011;25829;50.228;18.936;2024-03-08T11:53:41;21.13;;;13.10;;
40116;SDS011;25829;50.228;18.936;2024-03-08T11:56:41;17.50;;;12.53;;
40116;SDS011;25829;50.228;18.936;2024-03-08T11:59:49;18.13;;;13.17;;
40116;SDS011;25829;50.228;18.936;2024-03-08T12:03:03;20.13;;;12.57;;
40116;SDS011;25829;50.228;18.936;2024-03-08T12:06:11;20.00;;;13.27;;
40116;SDS011;25829;50.228;18.936;2024-03-08T12:09:13;27.00;;;14.40;;
40116;SDS011;25829;50.228;18.936;2024-03-08T12:12:16;21.73;;;13.90;;
40116;SDS011;25829;50.228;18.936;2024-03-08T12:15:21;18.70;;;12.97;;
40116;SDS011;25829;50.228;18.936;2024-03-08T12:18:24;23.53;;;14.67;;
40116;SDS011;25829;50.228;18.936;2024-03-08T12:21:26;22.07;;;13.90;;
40116;SDS011;25829;50.228;18.936;2024-03-08T12:24:29;20.13;;;12.97;;
40116;SDS011;25829;50.228;18.936;2024-03-08T12:27:30;23.03;;;13.47;;
40116;SDS011;25829;50.228;18.936;2024-03-08T12:30:32;21.70;;;14.63;;
40116;SDS011;25829;50.228;18.936;2024-03-08T12:33:33;22.33;;;14.10;;
40116;SDS011;25829;50.228;18.936;2024-03-08T12:36:35;23.33;;;14.10;;
40116;SDS011;25829;50.228;18.936;2024-03-08T12:39:36;22.20;;;14.70;;
40116;SDS011;25829;50.228;18.936;2024-03-08T12:42:38;25.33;;;14.40;;
40116;SDS011;25829;50.228;18.936;2024-03-08T12:45:39;23.87;;;15.47;;
40116;SDS011;25829;50.228;18.936;2024-03-08T12:48:39;21.63;;;15.33;;
40116;SDS011;25829;50.228;18.936;2024-03-08T12:51:40;22.07;;;14.13;;
40116;SDS011;25829;50.228;18.936;2024-03-08T12:54:41;25.40;;;15.47;;
40116;SDS011;25829;50.228;18.936;2024-03-08T12:57:43;23.03;;;15.73;;
40116;SDS011;25829;50.228;18.936;2024-03-08T13:00:44;22.60;;;14.70;;
40116;SDS011;25829;50.228;18.936;2024-03-08T13:03:45;20.07;;;13.47;;
40116;SDS011;25829;50.228;18.936;2024-03-08T13:06:46;22.83;;;14.53;;
40116;SDS011;25829;50.228;18.936;2024-03-08T13:09:50;23.47;;;15.63;;
40116;SDS011;25829;50.228;18.936;2024-03-08T13:12:50;21.73;;;14.43;;
40116;SDS011;25829;50.228;18.936;2024-03-08T13:15:53;27.63;;;15.23;;
40116;SDS011;25829;50.228;18.936;2024-03-08T13:18:54;26.27;;;16.70;;
40116;SDS011;25829;50.228;18.936;2024-03-08T13:21:54;24.77;;;16.30;;
40116;SDS011;25829;50.228;18.936;2024-03-08T13:24:56;25.57;;;15.47;;
40116;SDS011;25829;50.228;18.936;2024-03-08T13:27:57;23.20;;;15.87;;
40116;SDS011;25829;50.228;18.936;2024-03-08T13:30:59;26.07;;;15.60;;
40116;SDS011;25829;50.228;18.936;2024-03-08T13:34:01;22.97;;;15.87;;
40116;SDS011;25829;50.228;18.936;2024-03-08T13:37:05;24.40;;;15.97;;
40116;SDS011;25829;50.228;18.936;2024-03-08T13:40:06;24.70;;;15.23;;
40116;SDS011;25829;50.228;18.936;2024-03-08T13:43:11;22.20;;;14.47;;
40116;SDS011;25829;50.228;18.936;2024-03-08T13:46:13;28.33;;;16.40;;
40116;SDS011;25829;50.228;18.936;2024-03-08T13:49:14;22.70;;;14.63;;
40116;SDS011;25829;50.228;18.936;2024-03-08T13:52:14;23.83;;;15.67;;
40116;SDS011;25829;50.228;18.936;2024-03-08T13:55:25;27.43;;;16.40;;
40116;SDS011;25829;50.228;18.936;2024-03-08T13:58:28;23.07;;;15.57;;
40116;SDS011;25829;50.228;18.936;2024-03-08T14:01:29;23.77;;;15.77;;
40116;SDS011;25829;50.228;18.936;2024-03-08T14:04:30;23.50;;;14.90;;
40116;SDS011;25829;50.228;18.936;2024-03-08T14:07:31;23.77;;;15.27;;
40116;SDS011;25829;50.228;18.936;2024-03-08T14:10:36;24.40;;;16.10;;
40116;SDS011;25829;50.228;18.936;2024-03-08T14:13:43;23.30;;;15.57;;
40116;SDS011;25829;50.228;18.936;2024-03-08T14:16:47;22.83;;;14.70;;
40116;SDS011;25829;50.228;18.936;2024-03-08T14:19:48;22.93;;;15.33;;
40116;SDS011;25829;50.228;18.936;2024-03-08T14:22:53;26.70;;;16.23;;
40116;SDS011;25829;50.228;18.936;2024-03-08T14:25:55;23.97;;;15.00;;
40116;SDS011;25829;50.228;18.936;2024-03-08T14:28:56;22.63;;;15.50;;
40116;SDS011;25829;50.228;18.936;2024-03-08T14:31:57;25.40;;;14.67;;
40116;SDS011;25829;50.228;18.936;2024-03-08T14:34:59;21.53;;;14.00;;
40116;SDS011;25829;50.228;18.936;2024-03-08T14:37:59;24.57;;;14.63;;
40116;SDS011;25829;50.228;18.936;2024-03-08T14:41:00;23.10;;;15.47;;
40116;SDS011;25829;50.228;18.936;2024-03-08T14:44:01;20.77;;;14.27;;
40116;SDS011;25829;50.228;18.936;2024-03-08T14:47:02;22.13;;;15.03;;
40116;SDS011;25829;50.228;18.936;2024-03-08T14:50:05;24.27;;;15.23;;
40116;SDS011;25829;50.228;18.936;2024-03-08T14:53:07;23.97;;;16.07;;
40116;SDS011;25829;50.228;18.936;2024-03-08T14:56:08;25.17;;;14.93;;
40116;SDS011;25829;50.228;18.936;2024-03-08T14:59:09;22.67;;;14.90;;
40116;SDS011;25829;50.228;18.936;2024-03-08T15:02:10;24.63;;;15.53;;
40116;SDS011;25829;50.228;18.936;2024-03-08T15:05:10;23.10;;;15.13;;
40116;SDS011;25829;50.228;18.936;2024-03-08T15:08:11;22.57;;;14.97;;
40116;SDS011;25829;50.228;18.936;2024-03-08T15:11:19;23.90;;;14.83;;
40116;SDS011;25829;50.228;18.936;2024-03-08T15:14:25;29.60;;;19.27;;
40116;SDS011;25829;50.228;18.936;2024-03-08T15:17:26;25.83;;;16.23;;
40116;SDS011;25829;50.228;18.936;2024-03-08T15:20:27;30.70;;;20.47;;
40116;SDS011;25829;50.228;18.936;2024-03-08T15:23:29;34.60;;;19.70;;
40116;SDS011;25829;50.228;18.936;2024-03-08T15:26:29;20.13;;;13.83;;
40116;SDS011;25829;50.228;18.936;2024-03-08T15:29:31;32.07;;;17.27;;
40116;SDS011;25829;50.228;18.936;2024-03-08T15:32:34;23.53;;;15.57;;
40116;SDS011;25829;50.228;18.936;2024-03-08T15:35:35;20.73;;;14.73;;
40116;SDS011;25829;50.228;18.936;2024-03-08T15:38:38;25.20;;;16.80;;
40116;SDS011;25829;50.228;18.936;2024-03-08T15:41:38;27.10;;;17.23;;
40116;SDS011;25829;50.228;18.936;2024-03-08T15:44:40;23.63;;;15.23;;
40116;SDS011;25829;50.228;18.936;2024-03-08T15:47:43;22.70;;;15.83;;
40116;SDS011;25829;50.228;18.936;2024-03-08T15:50:44;24.07;;;15.67;;
40116;SDS011;25829;50.228;18.936;2024-03-08T15:53:46;34.80;;;19.00;;
40116;SDS011;25829;50.228;18.936;2024-03-08T15:56:53;25.20;;;17.37;;
40116;SDS011;25829;50.228;18.936;2024-03-08T15:59:53;28.53;;;18.53;;
40116;SDS011;25829;50.228;18.936;2024-03-08T16:03:00;25.57;;;16.57;;
40116;SDS011;25829;50.228;18.936;2024-03-08T16:06:06;24.20;;;15.70;;
40116;SDS011;25829;50.228;18.936;2024-03-08T16:09:07;28.27;;;17.30;;
40116;SDS011;25829;50.228;18.936;2024-03-08T16:12:15;27.20;;;15.80;;
40116;SDS011;25829;50.228;18.936;2024-03-08T16:15:16;30.83;;;16.57;;
40116;SDS011;25829;50.228;18.936;2024-03-08T16:18:17;26.07;;;17.37;;
40116;SDS011;25829;50.228;18.936;2024-03-08T16:21:21;24.20;;;15.97;;
40116;SDS011;25829;50.228;18.936;2024-03-08T16:24:22;26.30;;;16.17;;
40116;SDS011;25829;50.228;18.936;2024-03-08T16:27:23;26.73;;;16.13;;
40116;SDS011;25829;50.228;18.936;2024-03-08T16:30:24;25.10;;;15.23;;
40116;SDS011;25829;50.228;18.936;2024-03-08T16:33:26;22.13;;;15.07;;
40116;SDS011;25829;50.228;18.936;2024-03-08T16:36:27;23.17;;;15.63;;
40116;SDS011;25829;50.228;18.936;2024-03-08T16:39:28;23.13;;;15.57;;
40116;SDS011;25829;50.228;18.936;2024-03-08T16:42:29;28.23;;;17.00;;
40116;SDS011;25829;50.228;18.936;2024-03-08T16:45:30;28.93;;;16.60;;
40116;SDS011;25829;50.228;18.936;2024-03-08T16:48:30;35.23;;;19.80;;
40116;SDS011;25829;50.228;18.936;2024-03-08T16:51:31;37.10;;;20.33;;
40116;SDS011;25829;50.228;18.936;2024-03-08T16:54:32;45.80;;;25.73;;
40116;SDS011;25829;50.228;18.936;2024-03-08T16:57:34;46.17;;;25.23;;
40116;SDS011;25829;50.228;18.936;2024-03-08T17:00:34;33.67;;;19.70;;
40116;SDS011;25829;50.228;18.936;2024-03-08T17:03:36;28.60;;;19.13;;
40116;SDS011;25829;50.228;18.936;2024-03-08T17:06:37;25.47;;;16.97;;
40116;SDS011;25829;50.228;18.936;2024-03-08T17:09:38;24.27;;;16.50;;
40116;SDS011;25829;50.228;18.936;2024-03-08T17:12:39;25.87;;;16.43;;
40116;SDS011;25829;50.228;18.936;2024-03-08T17:15:40;25.87;;;17.13;;
40116;SDS011;25829;50.228;18.936;2024-03-08T17:18:43;36.00;;;23.07;;
40116;SDS011;25829;50.228;18.936;2024-03-08T17:21:44;56.07;;;29.77;;
40116;SDS011;25829;50.228;18.936;2024-03-08T17:24:45;39.63;;;23.07;;
40116;SDS011;25829;50.228;18.936;2024-03-08T17:27:46;39.83;;;23.87;;
40116;SDS011;25829;50.228;18.936;2024-03-08T17:30:50;42.50;;;23.67;;
40116;SDS011;25829;50.228;18.936;2024-03-08T17:33:51;57.17;;;29.13;;
40116;SDS011;25829;50.228;18.936;2024-03-08T17:36:52;54.43;;;28.43;;